sensor_id;sensor_type;location;lat;lon;timestamp;temperature;humidity
7530;DHT22;3806;52.270;10.544;2023-05-10T00:01:42;15.00;57.10
7530;DHT22;3806;52.270;10.544;2023-05-10T00:04:07;14.90;57.70
7530;DHT22;3806;52.270;10.544;2023-05-10T00:06:33;14.90;57.90
7530;DHT22;3806;52.270;10.544;2023-05-10T00:08:58;14.90;58.10
7530;DHT22;3806;52.270;10.544;2023-05-10T00:11:24;14.90;58.20
7530;DHT22;3806;52.270;10.544;2023-05-10T00:13:50;14.80;58.60
7530;DHT22;3806;52.270;10.544;2023-05-10T00:16:15;14.90;58.70
7530;DHT22;3806;52.270;10.544;2023-05-10T00:18:41;14.90;58.60
7530;DHT22;3806;52.270;10.544;2023-05-10T00:21:06;15.00;58.60
7530;DHT22;3806;52.270;10.544;2023-05-10T00:23:32;14.90;58.70
7530;DHT22;3806;52.270;10.544;2023-05-10T00:25:57;14.90;59.20
7530;DHT22;3806;52.270;10.544;2023-05-10T00:28:23;14.90;59.40
7530;DHT22;3806;52.270;10.544;2023-05-10T00:30:49;14.90;59.70
7530;DHT22;3806;52.270;10.544;2023-05-10T00:33:14;14.80;59.70
7530;DHT22;3806;52.270;10.544;2023-05-10T00:35:40;14.80;60.00
7530;DHT22;3806;52.270;10.544;2023-05-10T00:38:05;14.70;60.30
7530;DHT22;3806;52.270;10.544;2023-05-10T00:40:31;14.80;60.30
7530;DHT22;3806;52.270;10.544;2023-05-10T00:42:57;14.80;60.50
7530;DHT22;3806;52.270;10.544;2023-05-10T00:45:23;14.70;61.00
7530;DHT22;3806;52.270;10.544;2023-05-10T00:47:49;14.70;61.10
7530;DHT22;3806;52.270;10.544;2023-05-10T00:50:15;14.70;61.30
7530;DHT22;3806;52.270;10.544;2023-05-10T00:52:41;14.60;62.00
7530;DHT22;3806;52.270;10.544;2023-05-10T00:55:10;14.70;62.30
7530;DHT22;3806;52.270;10.544;2023-05-10T00:57:36;14.60;62.60
7530;DHT22;3806;52.270;10.544;2023-05-10T01:00:03;14.70;62.30
7530;DHT22;3806;52.270;10.544;2023-05-10T01:02:28;14.70;62.50
7530;DHT22;3806;52.270;10.544;2023-05-10T01:04:54;14.70;62.90
7530;DHT22;3806;52.270;10.544;2023-05-10T01:07:20;14.60;63.10
7530;DHT22;3806;52.270;10.544;2023-05-10T01:09:45;14.70;63.30
7530;DHT22;3806;52.270;10.544;2023-05-10T01:12:11;14.60;63.80
7530;DHT22;3806;52.270;10.544;2023-05-10T01:14:37;14.50;64.50
7530;DHT22;3806;52.270;10.544;2023-05-10T01:17:04;14.50;64.50
7530;DHT22;3806;52.270;10.544;2023-05-10T01:19:31;14.60;64.40
7530;DHT22;3806;52.270;10.544;2023-05-10T01:30:34;14.40;65.60
7530;DHT22;3806;52.270;10.544;2023-05-10T01:35:47;14.40;66.40
7530;DHT22;3806;52.270;10.544;2023-05-10T01:38:44;14.40;66.30
7530;DHT22;3806;52.270;10.544;2023-05-10T01:41:36;14.40;66.70
7530;DHT22;3806;52.270;10.544;2023-05-10T01:44:10;14.40;66.60
7530;DHT22;3806;52.270;10.544;2023-05-10T01:46:40;14.30;66.90
7530;DHT22;3806;52.270;10.544;2023-05-10T01:49:26;14.30;67.20
7530;DHT22;3806;52.270;10.544;2023-05-10T01:51:59;14.30;67.50
7530;DHT22;3806;52.270;10.544;2023-05-10T01:54:27;14.20;68.00
7530;DHT22;3806;52.270;10.544;2023-05-10T01:57:01;14.30;68.30
7530;DHT22;3806;52.270;10.544;2023-05-10T01:59:31;14.30;68.30
7530;DHT22;3806;52.270;10.544;2023-05-10T02:02:02;14.20;68.90
7530;DHT22;3806;52.270;10.544;2023-05-10T02:04:28;14.20;68.80
7530;DHT22;3806;52.270;10.544;2023-05-10T02:06:55;14.20;68.90
7530;DHT22;3806;52.270;10.544;2023-05-10T02:09:22;14.10;69.50
7530;DHT22;3806;52.270;10.544;2023-05-10T02:11:49;14.20;69.60
7530;DHT22;3806;52.270;10.544;2023-05-10T02:14:15;14.20;69.70
7530;DHT22;3806;52.270;10.544;2023-05-10T02:16:43;14.10;70.30
7530;DHT22;3806;52.270;10.544;2023-05-10T02:19:10;14.10;70.50
7530;DHT22;3806;52.270;10.544;2023-05-10T02:21:38;14.10;70.70
7530;DHT22;3806;52.270;10.544;2023-05-10T02:24:04;14.00;70.80
7530;DHT22;3806;52.270;10.544;2023-05-10T02:26:31;14.00;71.30
7530;DHT22;3806;52.270;10.544;2023-05-10T02:29:02;14.00;71.50
7530;DHT22;3806;52.270;10.544;2023-05-10T02:31:30;14.10;71.50
7530;DHT22;3806;52.270;10.544;2023-05-10T02:33:57;14.00;71.80
7530;DHT22;3806;52.270;10.544;2023-05-10T02:36:24;14.10;72.50
7530;DHT22;3806;52.270;10.544;2023-05-10T02:38:53;14.00;72.40
7530;DHT22;3806;52.270;10.544;2023-05-10T02:41:20;14.00;72.80
7530;DHT22;3806;52.270;10.544;2023-05-10T02:43:47;14.00;73.20
7530;DHT22;3806;52.270;10.544;2023-05-10T02:46:14;13.90;73.60
7530;DHT22;3806;52.270;10.544;2023-05-10T02:48:40;14.00;73.50
7530;DHT22;3806;52.270;10.544;2023-05-10T02:51:07;13.90;73.80
7530;DHT22;3806;52.270;10.544;2023-05-10T02:53:35;14.00;74.20
7530;DHT22;3806;52.270;10.544;2023-05-10T02:56:05;14.00;74.30
7530;DHT22;3806;52.270;10.544;2023-05-10T02:58:32;14.00;74.10
7530;DHT22;3806;52.270;10.544;2023-05-10T03:00:58;14.00;73.90
7530;DHT22;3806;52.270;10.544;2023-05-10T03:03:24;14.00;74.20
7530;DHT22;3806;52.270;10.544;2023-05-10T03:05:50;14.00;74.50
7530;DHT22;3806;52.270;10.544;2023-05-10T03:08:16;13.90;74.90
7530;DHT22;3806;52.270;10.544;2023-05-10T03:10:48;13.90;75.00
7530;DHT22;3806;52.270;10.544;2023-05-10T03:13:25;14.00;75.00
7530;DHT22;3806;52.270;10.544;2023-05-10T03:16:07;14.00;75.10
7530;DHT22;3806;52.270;10.544;2023-05-10T03:18:58;13.90;75.60
7530;DHT22;3806;52.270;10.544;2023-05-10T03:21:29;13.90;76.10
7530;DHT22;3806;52.270;10.544;2023-05-10T03:24:00;13.90;75.90
7530;DHT22;3806;52.270;10.544;2023-05-10T03:26:28;13.90;76.40
7530;DHT22;3806;52.270;10.544;2023-05-10T03:28:55;13.80;77.00
7530;DHT22;3806;52.270;10.544;2023-05-10T03:31:21;13.90;76.70
7530;DHT22;3806;52.270;10.544;2023-05-10T03:33:48;13.90;76.90
7530;DHT22;3806;52.270;10.544;2023-05-10T03:36:13;13.90;77.00
7530;DHT22;3806;52.270;10.544;2023-05-10T03:38:39;13.80;77.60
7530;DHT22;3806;52.270;10.544;2023-05-10T03:41:05;13.80;77.80
7530;DHT22;3806;52.270;10.544;2023-05-10T03:43:30;13.80;77.90
7530;DHT22;3806;52.270;10.544;2023-05-10T03:45:56;13.80;78.00
7530;DHT22;3806;52.270;10.544;2023-05-10T03:48:21;13.90;78.10
7530;DHT22;3806;52.270;10.544;2023-05-10T03:50:47;13.80;78.30
7530;DHT22;3806;52.270;10.544;2023-05-10T03:53:12;13.80;78.20
7530;DHT22;3806;52.270;10.544;2023-05-10T03:55:38;13.80;78.60
7530;DHT22;3806;52.270;10.544;2023-05-10T03:58:03;13.80;78.70
7530;DHT22;3806;52.270;10.544;2023-05-10T04:00:29;13.80;79.10
7530;DHT22;3806;52.270;10.544;2023-05-10T04:02:55;13.70;79.60
7530;DHT22;3806;52.270;10.544;2023-05-10T04:05:20;13.70;80.00
7530;DHT22;3806;52.270;10.544;2023-05-10T04:07:46;13.70;80.20
7530;DHT22;3806;52.270;10.544;2023-05-10T04:10:12;13.70;80.60
7530;DHT22;3806;52.270;10.544;2023-05-10T04:12:38;13.70;81.10
7530;DHT22;3806;52.270;10.544;2023-05-10T04:15:04;13.70;81.30
7530;DHT22;3806;52.270;10.544;2023-05-10T04:17:29;13.80;80.90
7530;DHT22;3806;52.270;10.544;2023-05-10T04:19:55;13.70;81.30
7530;DHT22;3806;52.270;10.544;2023-05-10T04:22:21;13.70;81.80
7530;DHT22;3806;52.270;10.544;2023-05-10T04:24:46;13.70;82.00
7530;DHT22;3806;52.270;10.544;2023-05-10T04:27:12;13.80;82.10
7530;DHT22;3806;52.270;10.544;2023-05-10T04:29:37;13.80;82.30
7530;DHT22;3806;52.270;10.544;2023-05-10T04:32:03;13.70;82.80
7530;DHT22;3806;52.270;10.544;2023-05-10T04:34:29;13.70;83.10
7530;DHT22;3806;52.270;10.544;2023-05-10T04:36:54;13.70;83.30
7530;DHT22;3806;52.270;10.544;2023-05-10T04:39:20;13.80;83.20
7530;DHT22;3806;52.270;10.544;2023-05-10T04:41:46;13.80;83.80
7530;DHT22;3806;52.270;10.544;2023-05-10T04:44:11;13.80;84.20
7530;DHT22;3806;52.270;10.544;2023-05-10T04:46:37;13.80;84.30
7530;DHT22;3806;52.270;10.544;2023-05-10T04:49:02;13.80;84.80
7530;DHT22;3806;52.270;10.544;2023-05-10T04:51:28;13.80;85.10
7530;DHT22;3806;52.270;10.544;2023-05-10T04:53:53;13.70;85.30
7530;DHT22;3806;52.270;10.544;2023-05-10T04:56:19;13.70;85.90
7530;DHT22;3806;52.270;10.544;2023-05-10T04:58:44;13.70;85.90
7530;DHT22;3806;52.270;10.544;2023-05-10T05:01:10;13.70;86.60
7530;DHT22;3806;52.270;10.544;2023-05-10T05:03:36;13.70;86.80
7530;DHT22;3806;52.270;10.544;2023-05-10T05:06:02;13.60;87.20
7530;DHT22;3806;52.270;10.544;2023-05-10T05:08:27;13.60;87.20
7530;DHT22;3806;52.270;10.544;2023-05-10T05:10:53;13.60;87.50
7530;DHT22;3806;52.270;10.544;2023-05-10T05:13:18;13.60;87.50
7530;DHT22;3806;52.270;10.544;2023-05-10T05:15:44;13.50;88.50
7530;DHT22;3806;52.270;10.544;2023-05-10T05:18:10;13.50;89.10
7530;DHT22;3806;52.270;10.544;2023-05-10T05:20:35;13.50;89.10
7530;DHT22;3806;52.270;10.544;2023-05-10T05:23:01;13.50;89.50
7530;DHT22;3806;52.270;10.544;2023-05-10T05:25:26;13.40;90.00
7530;DHT22;3806;52.270;10.544;2023-05-10T05:27:52;13.40;90.40
7530;DHT22;3806;52.270;10.544;2023-05-10T05:30:18;13.40;90.60
7530;DHT22;3806;52.270;10.544;2023-05-10T05:32:43;13.50;90.90
7530;DHT22;3806;52.270;10.544;2023-05-10T05:35:09;13.50;90.70
7530;DHT22;3806;52.270;10.544;2023-05-10T05:37:34;13.50;90.80
7530;DHT22;3806;52.270;10.544;2023-05-10T05:40:00;13.50;91.10
7530;DHT22;3806;52.270;10.544;2023-05-10T05:42:27;13.40;91.10
7530;DHT22;3806;52.270;10.544;2023-05-10T05:44:52;13.40;91.50
7530;DHT22;3806;52.270;10.544;2023-05-10T05:47:18;13.50;91.80
7530;DHT22;3806;52.270;10.544;2023-05-10T05:49:45;13.50;92.00
7530;DHT22;3806;52.270;10.544;2023-05-10T05:52:11;13.60;92.00
7530;DHT22;3806;52.270;10.544;2023-05-10T05:54:36;13.60;91.80
7530;DHT22;3806;52.270;10.544;2023-05-10T05:57:02;13.60;92.10
7530;DHT22;3806;52.270;10.544;2023-05-10T05:59:28;13.60;92.30
7530;DHT22;3806;52.270;10.544;2023-05-10T06:01:54;13.60;92.40
7530;DHT22;3806;52.270;10.544;2023-05-10T06:04:19;13.40;92.50
7530;DHT22;3806;52.270;10.544;2023-05-10T06:06:45;13.60;93.00
7530;DHT22;3806;52.270;10.544;2023-05-10T06:09:10;13.60;93.30
7530;DHT22;3806;52.270;10.544;2023-05-10T06:11:36;13.70;93.40
7530;DHT22;3806;52.270;10.544;2023-05-10T06:14:03;13.70;93.30
7530;DHT22;3806;52.270;10.544;2023-05-10T06:16:33;13.70;93.50
7530;DHT22;3806;52.270;10.544;2023-05-10T06:18:59;13.80;93.50
7530;DHT22;3806;52.270;10.544;2023-05-10T06:21:24;13.90;93.90
7530;DHT22;3806;52.270;10.544;2023-05-10T06:23:50;14.00;93.90
7530;DHT22;3806;52.270;10.544;2023-05-10T06:26:16;14.00;93.80
7530;DHT22;3806;52.270;10.544;2023-05-10T06:28:41;14.20;93.90
7530;DHT22;3806;52.270;10.544;2023-05-10T06:31:07;14.30;93.70
7530;DHT22;3806;52.270;10.544;2023-05-10T06:33:33;14.40;93.60
7530;DHT22;3806;52.270;10.544;2023-05-10T06:35:59;14.50;93.40
7530;DHT22;3806;52.270;10.544;2023-05-10T06:38:25;14.60;93.10
7530;DHT22;3806;52.270;10.544;2023-05-10T06:40:51;14.70;92.80
7530;DHT22;3806;52.270;10.544;2023-05-10T06:43:17;14.80;92.70
7530;DHT22;3806;52.270;10.544;2023-05-10T06:45:43;14.80;92.80
7530;DHT22;3806;52.270;10.544;2023-05-10T06:48:08;14.80;93.10
7530;DHT22;3806;52.270;10.544;2023-05-10T06:50:34;14.70;93.00
7530;DHT22;3806;52.270;10.544;2023-05-10T06:53:00;14.60;93.30
7530;DHT22;3806;52.270;10.544;2023-05-10T06:55:27;14.60;93.60
7530;DHT22;3806;52.270;10.544;2023-05-10T06:57:55;14.50;94.20
7530;DHT22;3806;52.270;10.544;2023-05-10T07:00:21;14.50;94.90
7530;DHT22;3806;52.270;10.544;2023-05-10T07:02:47;14.40;95.80
7530;DHT22;3806;52.270;10.544;2023-05-10T07:05:12;14.30;96.60
7530;DHT22;3806;52.270;10.544;2023-05-10T07:07:38;14.30;97.10
7530;DHT22;3806;52.270;10.544;2023-05-10T07:10:05;14.30;97.60
7530;DHT22;3806;52.270;10.544;2023-05-10T07:12:30;14.40;98.00
7530;DHT22;3806;52.270;10.544;2023-05-10T07:14:56;14.50;98.30
7530;DHT22;3806;52.270;10.544;2023-05-10T07:17:22;14.60;98.50
7530;DHT22;3806;52.270;10.544;2023-05-10T07:19:47;14.60;98.80
7530;DHT22;3806;52.270;10.544;2023-05-10T07:22:14;14.70;99.20
7530;DHT22;3806;52.270;10.544;2023-05-10T07:24:40;14.80;99.50
7530;DHT22;3806;52.270;10.544;2023-05-10T07:27:05;14.80;99.70
7530;DHT22;3806;52.270;10.544;2023-05-10T07:29:31;14.90;99.90
7530;DHT22;3806;52.270;10.544;2023-05-10T07:31:56;14.90;99.90
7530;DHT22;3806;52.270;10.544;2023-05-10T07:34:22;14.80;99.90
7530;DHT22;3806;52.270;10.544;2023-05-10T07:36:48;14.80;99.90
7530;DHT22;3806;52.270;10.544;2023-05-10T07:39:13;14.70;99.90
7530;DHT22;3806;52.270;10.544;2023-05-10T07:41:39;14.80;99.90
7530;DHT22;3806;52.270;10.544;2023-05-10T07:44:05;14.80;99.90
7530;DHT22;3806;52.270;10.544;2023-05-10T07:46:31;14.80;99.90
7530;DHT22;3806;52.270;10.544;2023-05-10T07:48:56;14.80;99.90
7530;DHT22;3806;52.270;10.544;2023-05-10T07:51:22;14.80;99.90
7530;DHT22;3806;52.270;10.544;2023-05-10T07:53:47;14.80;99.90
7530;DHT22;3806;52.270;10.544;2023-05-10T07:56:26;14.80;99.90
7530;DHT22;3806;52.270;10.544;2023-05-10T07:58:55;14.80;99.90
7530;DHT22;3806;52.270;10.544;2023-05-10T08:01:20;14.80;99.90
7530;DHT22;3806;52.270;10.544;2023-05-10T08:03:46;14.80;99.90
7530;DHT22;3806;52.270;10.544;2023-05-10T08:06:13;14.90;99.90
7530;DHT22;3806;52.270;10.544;2023-05-10T08:08:42;15.00;99.90
7530;DHT22;3806;52.270;10.544;2023-05-10T08:11:07;15.10;99.90
7530;DHT22;3806;52.270;10.544;2023-05-10T08:13:33;15.20;99.90
7530;DHT22;3806;52.270;10.544;2023-05-10T08:15:59;15.20;99.90
7530;DHT22;3806;52.270;10.544;2023-05-10T08:18:24;15.30;99.90
7530;DHT22;3806;52.270;10.544;2023-05-10T08:20:50;15.40;99.90
7530;DHT22;3806;52.270;10.544;2023-05-10T08:23:15;15.40;99.90
7530;DHT22;3806;52.270;10.544;2023-05-10T08:25:41;15.40;99.90
7530;DHT22;3806;52.270;10.544;2023-05-10T08:28:06;15.40;99.90
7530;DHT22;3806;52.270;10.544;2023-05-10T08:30:32;15.30;99.90
7530;DHT22;3806;52.270;10.544;2023-05-10T08:32:58;15.20;99.90
7530;DHT22;3806;52.270;10.544;2023-05-10T08:35:23;15.20;99.90
7530;DHT22;3806;52.270;10.544;2023-05-10T08:37:50;15.10;99.90
7530;DHT22;3806;52.270;10.544;2023-05-10T08:40:16;15.00;99.90
7530;DHT22;3806;52.270;10.544;2023-05-10T08:43:10;15.00;99.90
7530;DHT22;3806;52.270;10.544;2023-05-10T08:45:42;15.00;99.90
7530;DHT22;3806;52.270;10.544;2023-05-10T08:48:09;15.00;99.90
7530;DHT22;3806;52.270;10.544;2023-05-10T08:50:36;15.00;99.90
7530;DHT22;3806;52.270;10.544;2023-05-10T08:53:11;15.00;99.90
7530;DHT22;3806;52.270;10.544;2023-05-10T08:55:37;15.00;99.90
7530;DHT22;3806;52.270;10.544;2023-05-10T08:58:06;15.10;99.90
7530;DHT22;3806;52.270;10.544;2023-05-10T09:00:33;15.10;99.90
7530;DHT22;3806;52.270;10.544;2023-05-10T09:02:59;15.20;99.90
7530;DHT22;3806;52.270;10.544;2023-05-10T09:05:25;15.20;99.90
7530;DHT22;3806;52.270;10.544;2023-05-10T09:07:51;15.30;99.90
7530;DHT22;3806;52.270;10.544;2023-05-10T09:10:17;15.30;99.90
7530;DHT22;3806;52.270;10.544;2023-05-10T09:12:44;15.40;99.90
7530;DHT22;3806;52.270;10.544;2023-05-10T09:15:10;15.50;99.90
7530;DHT22;3806;52.270;10.544;2023-05-10T09:17:38;15.60;99.90
7530;DHT22;3806;52.270;10.544;2023-05-10T09:20:04;15.70;99.90
7530;DHT22;3806;52.270;10.544;2023-05-10T09:22:31;15.70;99.90
7530;DHT22;3806;52.270;10.544;2023-05-10T09:25:10;15.80;99.90
7530;DHT22;3806;52.270;10.544;2023-05-10T09:27:37;15.70;99.90
7530;DHT22;3806;52.270;10.544;2023-05-10T09:30:04;15.70;99.90
7530;DHT22;3806;52.270;10.544;2023-05-10T09:35:13;15.70;99.90
7530;DHT22;3806;52.270;10.544;2023-05-10T09:37:40;15.70;99.90
7530;DHT22;3806;52.270;10.544;2023-05-10T09:40:21;15.80;99.90
7530;DHT22;3806;52.270;10.544;2023-05-10T09:43:01;15.80;99.90
7530;DHT22;3806;52.270;10.544;2023-05-10T09:45:31;15.90;99.90
7530;DHT22;3806;52.270;10.544;2023-05-10T09:47:57;15.70;99.90
7530;DHT22;3806;52.270;10.544;2023-05-10T09:50:25;15.90;99.90
7530;DHT22;3806;52.270;10.544;2023-05-10T09:53:01;15.90;99.90
7530;DHT22;3806;52.270;10.544;2023-05-10T09:58:06;16.10;99.90
7530;DHT22;3806;52.270;10.544;2023-05-10T10:00:37;16.10;99.90
7530;DHT22;3806;52.270;10.544;2023-05-10T10:03:03;16.10;99.90
7530;DHT22;3806;52.270;10.544;2023-05-10T10:05:33;16.10;99.90
7530;DHT22;3806;52.270;10.544;2023-05-10T10:08:02;16.20;99.90
7530;DHT22;3806;52.270;10.544;2023-05-10T10:10:28;16.30;99.90
7530;DHT22;3806;52.270;10.544;2023-05-10T10:12:55;16.40;99.90
7530;DHT22;3806;52.270;10.544;2023-05-10T10:15:22;16.50;99.90
7530;DHT22;3806;52.270;10.544;2023-05-10T10:17:49;16.50;99.90
7530;DHT22;3806;52.270;10.544;2023-05-10T10:20:16;16.60;99.90
7530;DHT22;3806;52.270;10.544;2023-05-10T10:22:42;16.70;99.90
7530;DHT22;3806;52.270;10.544;2023-05-10T10:25:10;16.80;99.90
7530;DHT22;3806;52.270;10.544;2023-05-10T10:30:45;16.70;99.90
7530;DHT22;3806;52.270;10.544;2023-05-10T10:36:15;16.60;99.90
7530;DHT22;3806;52.270;10.544;2023-05-10T10:49:28;16.40;99.90
7530;DHT22;3806;52.270;10.544;2023-05-10T10:52:24;16.40;99.90
7530;DHT22;3806;52.270;10.544;2023-05-10T10:57:27;16.50;99.90
7530;DHT22;3806;52.270;10.544;2023-05-10T11:00:21;16.60;99.90
7530;DHT22;3806;52.270;10.544;2023-05-10T11:02:52;16.70;99.90
7530;DHT22;3806;52.270;10.544;2023-05-10T11:07:57;16.80;99.90
7530;DHT22;3806;52.270;10.544;2023-05-10T11:10:24;16.90;99.90
7530;DHT22;3806;52.270;10.544;2023-05-10T11:13:02;16.80;99.90
7530;DHT22;3806;52.270;10.544;2023-05-10T11:15:35;16.80;99.90
7530;DHT22;3806;52.270;10.544;2023-05-10T11:20:52;16.80;99.90
7530;DHT22;3806;52.270;10.544;2023-05-10T11:23:20;16.80;99.90
7530;DHT22;3806;52.270;10.544;2023-05-10T11:25:48;16.80;99.90
7530;DHT22;3806;52.270;10.544;2023-05-10T11:28:14;16.80;99.90
7530;DHT22;3806;52.270;10.544;2023-05-10T11:30:40;16.80;99.90
7530;DHT22;3806;52.270;10.544;2023-05-10T11:33:07;16.90;99.90
7530;DHT22;3806;52.270;10.544;2023-05-10T11:35:40;16.90;99.90
7530;DHT22;3806;52.270;10.544;2023-05-10T11:38:09;17.00;99.90
7530;DHT22;3806;52.270;10.544;2023-05-10T11:40:37;17.10;99.90
7530;DHT22;3806;52.270;10.544;2023-05-10T11:43:03;17.20;99.90
7530;DHT22;3806;52.270;10.544;2023-05-10T11:45:32;17.30;99.90
7530;DHT22;3806;52.270;10.544;2023-05-10T11:47:59;17.40;99.90
7530;DHT22;3806;52.270;10.544;2023-05-10T11:50:25;17.40;99.90
7530;DHT22;3806;52.270;10.544;2023-05-10T11:52:55;17.50;99.90
7530;DHT22;3806;52.270;10.544;2023-05-10T11:55:21;17.50;99.90
7530;DHT22;3806;52.270;10.544;2023-05-10T11:57:49;17.50;99.90
7530;DHT22;3806;52.270;10.544;2023-05-10T12:00:16;17.40;99.90
7530;DHT22;3806;52.270;10.544;2023-05-10T12:02:42;17.30;99.90
7530;DHT22;3806;52.270;10.544;2023-05-10T12:05:08;17.40;99.90
7530;DHT22;3806;52.270;10.544;2023-05-10T12:07:35;17.40;99.90
7530;DHT22;3806;52.270;10.544;2023-05-10T12:10:11;17.50;99.90
7530;DHT22;3806;52.270;10.544;2023-05-10T12:12:41;17.70;99.90
7530;DHT22;3806;52.270;10.544;2023-05-10T12:15:17;17.90;99.90
7530;DHT22;3806;52.270;10.544;2023-05-10T12:17:45;18.00;99.90
7530;DHT22;3806;52.270;10.544;2023-05-10T12:20:18;18.20;99.90
7530;DHT22;3806;52.270;10.544;2023-05-10T12:22:55;18.30;99.90
7530;DHT22;3806;52.270;10.544;2023-05-10T12:25:22;18.40;99.90
7530;DHT22;3806;52.270;10.544;2023-05-10T12:30:19;18.70;99.90
7530;DHT22;3806;52.270;10.544;2023-05-10T12:32:45;18.80;99.90
7530;DHT22;3806;52.270;10.544;2023-05-10T12:35:11;18.90;99.90
7530;DHT22;3806;52.270;10.544;2023-05-10T12:37:36;19.10;99.90
7530;DHT22;3806;52.270;10.544;2023-05-10T12:40:07;19.20;99.90
7530;DHT22;3806;52.270;10.544;2023-05-10T12:42:34;19.40;99.90
7530;DHT22;3806;52.270;10.544;2023-05-10T12:45:01;19.50;99.90
7530;DHT22;3806;52.270;10.544;2023-05-10T12:47:27;19.60;99.90
7530;DHT22;3806;52.270;10.544;2023-05-10T12:49:52;19.70;99.60
7530;DHT22;3806;52.270;10.544;2023-05-10T12:52:18;19.80;99.30
7530;DHT22;3806;52.270;10.544;2023-05-10T12:54:43;19.90;98.90
7530;DHT22;3806;52.270;10.544;2023-05-10T12:57:09;20.00;98.60
7530;DHT22;3806;52.270;10.544;2023-05-10T12:59:35;20.10;98.30
7530;DHT22;3806;52.270;10.544;2023-05-10T13:02:00;20.10;98.30
7530;DHT22;3806;52.270;10.544;2023-05-10T13:04:26;20.10;97.80
7530;DHT22;3806;52.270;10.544;2023-05-10T13:06:51;20.10;97.50
7530;DHT22;3806;52.270;10.544;2023-05-10T13:09:16;20.10;97.30
7530;DHT22;3806;52.270;10.544;2023-05-10T13:11:42;20.20;96.70
7530;DHT22;3806;52.270;10.544;2023-05-10T13:14:08;20.20;96.80
7530;DHT22;3806;52.270;10.544;2023-05-10T13:16:33;20.30;96.90
7530;DHT22;3806;52.270;10.544;2023-05-10T13:18:59;20.40;96.70
7530;DHT22;3806;52.270;10.544;2023-05-10T13:21:24;20.50;96.60
7530;DHT22;3806;52.270;10.544;2023-05-10T13:23:50;20.70;96.10
7530;DHT22;3806;52.270;10.544;2023-05-10T13:26:16;20.80;95.60
7530;DHT22;3806;52.270;10.544;2023-05-10T13:28:41;20.90;94.60
7530;DHT22;3806;52.270;10.544;2023-05-10T13:31:07;21.00;93.60
7530;DHT22;3806;52.270;10.544;2023-05-10T13:33:33;21.10;93.00
7530;DHT22;3806;52.270;10.544;2023-05-10T13:35:58;21.10;92.00
7530;DHT22;3806;52.270;10.544;2023-05-10T13:38:24;21.20;91.60
7530;DHT22;3806;52.270;10.544;2023-05-10T13:40:49;21.20;91.30
7530;DHT22;3806;52.270;10.544;2023-05-10T13:43:18;21.20;91.30
7530;DHT22;3806;52.270;10.544;2023-05-10T13:45:43;21.20;91.40
7530;DHT22;3806;52.270;10.544;2023-05-10T13:48:09;21.30;91.50
7530;DHT22;3806;52.270;10.544;2023-05-10T13:50:35;21.20;91.50
7530;DHT22;3806;52.270;10.544;2023-05-10T13:53:00;21.20;91.40
7530;DHT22;3806;52.270;10.544;2023-05-10T13:55:26;21.10;91.50
7530;DHT22;3806;52.270;10.544;2023-05-10T13:57:51;21.00;91.60
7530;DHT22;3806;52.270;10.544;2023-05-10T14:00:17;20.90;91.60
7530;DHT22;3806;52.270;10.544;2023-05-10T14:02:43;20.70;91.60
7530;DHT22;3806;52.270;10.544;2023-05-10T14:05:08;20.60;91.80
7530;DHT22;3806;52.270;10.544;2023-05-10T14:07:34;20.50;92.20
7530;DHT22;3806;52.270;10.544;2023-05-10T14:10:00;20.40;92.60
7530;DHT22;3806;52.270;10.544;2023-05-10T14:12:25;20.30;92.70
7530;DHT22;3806;52.270;10.544;2023-05-10T14:14:51;20.20;93.00
7530;DHT22;3806;52.270;10.544;2023-05-10T14:17:17;20.20;93.40
7530;DHT22;3806;52.270;10.544;2023-05-10T14:19:43;20.10;93.10
7530;DHT22;3806;52.270;10.544;2023-05-10T14:22:08;19.90;93.00
7530;DHT22;3806;52.270;10.544;2023-05-10T14:24:34;19.90;93.10
7530;DHT22;3806;52.270;10.544;2023-05-10T14:27:00;19.80;93.40
7530;DHT22;3806;52.270;10.544;2023-05-10T14:29:26;19.70;93.70
7530;DHT22;3806;52.270;10.544;2023-05-10T14:31:51;19.70;94.00
7530;DHT22;3806;52.270;10.544;2023-05-10T14:34:17;19.70;94.20
7530;DHT22;3806;52.270;10.544;2023-05-10T14:36:42;19.70;94.60
7530;DHT22;3806;52.270;10.544;2023-05-10T14:39:08;19.70;94.90
7530;DHT22;3806;52.270;10.544;2023-05-10T14:41:35;19.80;94.90
7530;DHT22;3806;52.270;10.544;2023-05-10T14:44:01;19.80;94.80
7530;DHT22;3806;52.270;10.544;2023-05-10T14:46:28;19.90;94.70
7530;DHT22;3806;52.270;10.544;2023-05-10T14:48:55;19.90;94.50
7530;DHT22;3806;52.270;10.544;2023-05-10T14:51:21;20.00;94.40
7530;DHT22;3806;52.270;10.544;2023-05-10T14:53:50;20.00;93.70
7530;DHT22;3806;52.270;10.544;2023-05-10T14:56:17;20.10;92.90
7530;DHT22;3806;52.270;10.544;2023-05-10T14:58:43;20.10;92.90
7530;DHT22;3806;52.270;10.544;2023-05-10T15:01:09;20.10;93.30
7530;DHT22;3806;52.270;10.544;2023-05-10T15:03:34;20.20;93.50
7530;DHT22;3806;52.270;10.544;2023-05-10T15:06:00;20.30;93.20
7530;DHT22;3806;52.270;10.544;2023-05-10T15:08:25;20.20;93.60
7530;DHT22;3806;52.270;10.544;2023-05-10T15:10:51;20.30;93.80
7530;DHT22;3806;52.270;10.544;2023-05-10T15:13:17;20.30;93.60
7530;DHT22;3806;52.270;10.544;2023-05-10T15:15:42;20.40;93.20
7530;DHT22;3806;52.270;10.544;2023-05-10T15:18:09;20.50;92.90
7530;DHT22;3806;52.270;10.544;2023-05-10T15:20:36;20.50;92.70
7530;DHT22;3806;52.270;10.544;2023-05-10T15:23:01;20.60;92.70
7530;DHT22;3806;52.270;10.544;2023-05-10T15:25:27;20.70;92.80
7530;DHT22;3806;52.270;10.544;2023-05-10T15:27:54;20.70;92.80
7530;DHT22;3806;52.270;10.544;2023-05-10T15:30:19;20.70;92.60
7530;DHT22;3806;52.270;10.544;2023-05-10T15:32:46;20.70;92.40
7530;DHT22;3806;52.270;10.544;2023-05-10T15:35:11;20.70;92.50
7530;DHT22;3806;52.270;10.544;2023-05-10T15:37:37;20.60;92.60
7530;DHT22;3806;52.270;10.544;2023-05-10T15:40:03;20.60;92.80
7530;DHT22;3806;52.270;10.544;2023-05-10T15:42:30;20.60;93.10
7530;DHT22;3806;52.270;10.544;2023-05-10T15:44:56;20.50;93.10
7530;DHT22;3806;52.270;10.544;2023-05-10T15:47:21;20.50;92.80
7530;DHT22;3806;52.270;10.544;2023-05-10T15:49:47;20.50;92.90
7530;DHT22;3806;52.270;10.544;2023-05-10T15:52:12;20.40;92.90
7530;DHT22;3806;52.270;10.544;2023-05-10T15:54:38;20.30;93.20
7530;DHT22;3806;52.270;10.544;2023-05-10T15:57:05;20.20;93.60
7530;DHT22;3806;52.270;10.544;2023-05-10T15:59:32;20.20;94.10
7530;DHT22;3806;52.270;10.544;2023-05-10T16:01:57;20.10;94.20
7530;DHT22;3806;52.270;10.544;2023-05-10T16:04:23;20.20;94.40
7530;DHT22;3806;52.270;10.544;2023-05-10T16:06:48;20.10;94.40
7530;DHT22;3806;52.270;10.544;2023-05-10T16:09:14;20.10;94.50
7530;DHT22;3806;52.270;10.544;2023-05-10T16:11:41;20.10;94.60
7530;DHT22;3806;52.270;10.544;2023-05-10T16:14:07;20.10;94.40
7530;DHT22;3806;52.270;10.544;2023-05-10T16:16:33;20.00;94.70
7530;DHT22;3806;52.270;10.544;2023-05-10T16:18:58;19.90;94.90
7530;DHT22;3806;52.270;10.544;2023-05-10T16:21:26;19.90;95.10
7530;DHT22;3806;52.270;10.544;2023-05-10T16:23:53;19.90;95.10
7530;DHT22;3806;52.270;10.544;2023-05-10T16:26:19;19.90;95.20
7530;DHT22;3806;52.270;10.544;2023-05-10T16:28:45;19.90;95.40